createdAt,value
2022-11-06T00:01:50.715Z,62.10
2022-11-06T00:04:17.664Z,61.93
2022-11-06T00:06:50.745Z,61.53
2022-11-06T00:09:20.848Z,61.63
2022-11-06T00:11:50.131Z,61.24
2022-11-06T00:14:18.021Z,61.37
2022-11-06T00:16:46.578Z,61.20
2022-11-06T00:19:13.683Z,61.13
2022-11-06T00:21:40.583Z,60.81
2022-11-06T00:24:09.452Z,60.69
2022-11-06T00:26:36.403Z,60.66
2022-11-06T00:29:05.204Z,60.44
2022-11-06T00:31:37.082Z,60.59
2022-11-06T00:34:07.503Z,59.94
2022-11-06T00:36:35.144Z,60.19
2022-11-06T00:39:02.569Z,59.95
2022-11-06T00:41:29.453Z,60.03
2022-11-06T00:44:01.371Z,59.34
2022-11-06T00:46:28.986Z,59.65
2022-11-06T00:48:56.454Z,59.52
2022-11-06T00:51:30.827Z,59.61
2022-11-06T00:54:04.611Z,59.41
2022-11-06T00:56:32.513Z,59.54
2022-11-06T00:59:00.990Z,59.61
2022-11-06T01:01:34.609Z,59.62
2022-11-06T01:04:14.599Z,59.67
2022-11-06T01:06:44.938Z,59.84
2022-11-06T01:09:15.686Z,59.92
2022-11-06T01:12:11.935Z,59.70
2022-11-06T01:14:34.750Z,59.81
2022-11-06T01:17:01.767Z,60.07
2022-11-06T01:19:28.681Z,59.81
2022-11-06T01:21:55.612Z,59.45
2022-11-06T01:24:27.072Z,59.73
2022-11-06T01:27:20.388Z,59.33
2022-11-06T01:29:41.299Z,59.72
2022-11-06T01:32:08.350Z,59.60
2022-11-06T01:34:35.237Z,59.57
2022-11-06T01:37:02.348Z,59.57
2022-11-06T01:39:29.235Z,59.80
2022-11-06T01:41:56.115Z,59.55
2022-11-06T01:44:40.856Z,59.56
2022-11-06T01:47:25.771Z,59.47
2022-11-06T01:50:00.231Z,59.46
2022-11-06T01:52:29.248Z,59.35
2022-11-06T01:55:11.550Z,59.57
2022-11-06T01:57:38.532Z,59.34
2022-11-06T02:00:07.088Z,59.40
2022-11-06T02:02:34.740Z,59.54
2022-11-06T02:05:01.740Z,59.43
2022-11-06T02:07:28.946Z,59.36
2022-11-06T02:09:55.897Z,59.72
2022-11-06T02:12:43.664Z,59.45
2022-11-06T02:15:42.735Z,59.70
2022-11-06T02:18:59.335Z,59.72
2022-11-06T02:22:06.877Z,59.65
2022-11-06T02:25:12.897Z,59.73
2022-11-06T02:27:45.671Z,59.81
2022-11-06T02:30:15.723Z,59.60
2022-11-06T02:33:00.500Z,59.93
2022-11-06T02:35:40.433Z,59.73
2022-11-06T02:38:16.352Z,59.69
2022-11-06T02:40:49.769Z,59.49
2022-11-06T02:43:19.235Z,59.47
2022-11-06T02:45:55.684Z,59.64
2022-11-06T02:48:33.083Z,60.01
2022-11-06T02:51:05.647Z,59.80
2022-11-06T02:53:33.527Z,59.89
2022-11-06T02:56:09.317Z,59.79
2022-11-06T02:58:48.745Z,59.97
2022-11-06T03:01:43.518Z,59.79
2022-11-06T03:04:24.377Z,60.09
2022-11-06T03:07:06.167Z,60.19
2022-11-06T03:09:33.756Z,60.20
2022-11-06T03:12:17.215Z,60.37
2022-11-06T03:15:25.003Z,60.32
2022-11-06T03:18:13.931Z,60.34
2022-11-06T03:21:03.496Z,60.34
2022-11-06T03:23:53.743Z,60.79
2022-11-06T03:26:50.009Z,60.74
2022-11-06T03:29:42.174Z,60.96
2022-11-06T03:32:24.515Z,61.10
2022-11-06T03:35:01.229Z,61.17
2022-11-06T03:37:39.918Z,61.02
2022-11-06T03:40:14.509Z,61.21
2022-11-06T03:42:43.419Z,61.09
2022-11-06T03:45:16.422Z,61.14
2022-11-06T03:47:53.095Z,61.11
2022-11-06T03:50:48.633Z,61.36
2022-11-06T03:53:26.689Z,61.21
2022-11-06T03:56:02.139Z,61.24
2022-11-06T03:58:37.614Z,61.44
2022-11-06T04:01:08.063Z,61.15
2022-11-06T04:03:44.216Z,61.20
2022-11-06T04:06:30.613Z,61.28
2022-11-06T04:09:21.730Z,61.33
2022-11-06T04:12:08.645Z,61.52
2022-11-06T04:14:40.111Z,61.42
2022-11-06T04:17:11.178Z,61.39
2022-11-06T04:19:43.839Z,61.65
2022-11-06T04:22:58.319Z,61.60
2022-11-06T04:26:05.219Z,61.65
2022-11-06T04:28:58.828Z,61.29
2022-11-06T04:31:49.021Z,61.63
2022-11-06T04:34:46.186Z,61.52
2022-11-06T04:37:27.617Z,61.70
2022-11-06T04:40:10.177Z,61.61
2022-11-06T04:42:57.651Z,61.45
2022-11-06T04:45:39.751Z,61.30
2022-11-06T04:48:07.746Z,61.17
2022-11-06T04:50:43.714Z,61.18
2022-11-06T04:53:11.576Z,61.30
2022-11-06T04:55:51.736Z,61.21
2022-11-06T04:58:18.675Z,61.27
2022-11-06T05:00:49.363Z,61.29
2022-11-06T05:03:17.021Z,61.22
2022-11-06T05:05:43.898Z,60.95
2022-11-06T05:08:20.069Z,60.99
2022-11-06T05:10:47.799Z,60.73
2022-11-06T05:13:15.920Z,60.92
2022-11-06T05:15:43.106Z,60.82
2022-11-06T05:18:10.110Z,60.91
2022-11-06T05:20:37.295Z,61.11
2022-11-06T05:23:04.261Z,60.91
2022-11-06T05:25:35.302Z,60.79
2022-11-06T05:28:05.791Z,61.11
2022-11-06T05:30:33.714Z,61.20
2022-11-06T05:33:00.907Z,61.55
2022-11-06T05:35:28.071Z,61.31
2022-11-06T05:38:02.577Z,61.39
2022-11-06T05:40:29.767Z,60.94
2022-11-06T05:42:56.635Z,60.90
2022-11-06T05:45:23.529Z,61.04
2022-11-06T05:47:50.395Z,61.02
2022-11-06T05:50:17.450Z,60.70
2022-11-06T05:52:44.364Z,60.51
2022-11-06T05:55:14.880Z,60.66
2022-11-06T05:57:42.501Z,60.52
2022-11-06T06:00:11.782Z,60.68
2022-11-06T06:02:43.171Z,60.75
2022-11-06T06:05:10.231Z,60.56
2022-11-06T06:07:37.141Z,60.47
2022-11-06T06:10:04.808Z,60.60
2022-11-06T06:12:31.666Z,60.63
2022-11-06T06:14:58.537Z,60.64
2022-11-06T06:17:25.480Z,60.77
2022-11-06T06:19:52.531Z,61.15
2022-11-06T06:22:19.538Z,60.87
2022-11-06T06:24:46.524Z,61.09
2022-11-06T06:27:13.484Z,61.30
2022-11-06T06:29:40.362Z,61.02
2022-11-06T06:32:07.257Z,60.94
2022-11-06T06:34:34.160Z,61.25
2022-11-06T06:37:01.025Z,60.99
2022-11-06T06:39:27.926Z,60.89
2022-11-06T06:41:54.794Z,61.12
2022-11-06T06:44:21.686Z,60.93
2022-11-06T06:46:48.542Z,60.97
2022-11-06T06:49:15.437Z,60.97
2022-11-06T06:51:42.334Z,60.96
2022-11-06T06:54:09.298Z,60.74
2022-11-06T06:56:36.346Z,60.62
2022-11-06T06:59:03.225Z,60.73
2022-11-06T07:01:30.480Z,60.63
2022-11-06T07:04:01.437Z,60.86
2022-11-06T07:06:30.741Z,60.73
2022-11-06T07:08:57.632Z,60.78
2022-11-06T07:11:24.625Z,60.77
2022-11-06T07:13:51.499Z,60.62
2022-11-06T07:16:18.596Z,60.96
2022-11-06T07:18:45.484Z,60.59
2022-11-06T07:21:13.410Z,60.55
2022-11-06T07:23:40.595Z,60.78
2022-11-06T07:26:07.723Z,60.65
2022-11-06T07:28:34.825Z,60.52
2022-11-06T07:31:04.654Z,60.61
2022-11-06T07:33:32.610Z,60.35
2022-11-06T07:36:08.744Z,60.62
2022-11-06T07:38:36.878Z,60.17
2022-11-06T07:41:12.760Z,60.49
2022-11-06T07:43:41.851Z,60.28
2022-11-06T07:46:12.022Z,60.31
2022-11-06T07:48:39.618Z,60.32
2022-11-06T07:51:08.611Z,60.69
2022-11-06T07:53:36.634Z,60.72
2022-11-06T07:56:04.015Z,60.68
2022-11-06T07:58:31.161Z,60.65
2022-11-06T08:00:58.952Z,60.69
2022-11-06T08:03:28.147Z,60.37
2022-11-06T08:05:55.040Z,60.53
2022-11-06T08:08:21.959Z,60.76
2022-11-06T08:10:51.765Z,60.44
2022-11-06T08:13:18.894Z,60.49
2022-11-06T08:15:46.080Z,60.68
2022-11-06T08:18:13.328Z,60.81
2022-11-06T08:20:41.124Z,60.77
2022-11-06T08:23:11.257Z,60.40
2022-11-06T08:25:39.161Z,60.48
2022-11-06T08:28:06.160Z,60.25
2022-11-06T08:30:33.266Z,59.58
2022-11-06T08:33:07.083Z,59.81
2022-11-06T08:35:37.396Z,59.52
2022-11-06T08:38:04.614Z,59.05
2022-11-06T08:40:31.814Z,58.89
2022-11-06T08:43:03.712Z,59.14
2022-11-06T08:45:31.094Z,58.22
2022-11-06T08:48:02.748Z,58.44
2022-11-06T08:50:31.895Z,58.44
2022-11-06T08:53:04.192Z,58.45
2022-11-06T08:55:32.738Z,58.12
2022-11-06T08:57:59.831Z,58.08
2022-11-06T09:00:27.424Z,57.93
2022-11-06T09:03:10.434Z,58.01
2022-11-06T09:05:41.522Z,58.12
2022-11-06T09:08:09.426Z,58.30
2022-11-06T09:10:38.404Z,58.34
2022-11-06T09:13:05.360Z,58.52
2022-11-06T09:15:32.625Z,58.22
2022-11-06T09:17:59.517Z,57.87
2022-11-06T09:20:27.647Z,57.84
2022-11-06T09:22:55.294Z,57.74
2022-11-06T09:25:22.307Z,56.83
2022-11-06T09:27:58.471Z,57.19
2022-11-06T09:30:27.887Z,57.65
2022-11-06T09:32:58.530Z,57.38
2022-11-06T09:35:30.394Z,56.68
2022-11-06T09:38:07.326Z,57.09
2022-11-06T09:40:53.454Z,57.38
2022-11-06T09:44:02.801Z,56.92
2022-11-06T09:46:26.852Z,56.99
2022-11-06T09:49:06.335Z,57.12
2022-11-06T09:51:50.926Z,56.66
2022-11-06T09:55:00.730Z,56.34
2022-11-06T09:57:52.177Z,56.72
2022-11-06T10:00:19.378Z,56.42
2022-11-06T10:02:56.811Z,56.01
2022-11-06T10:05:31.680Z,55.60
2022-11-06T10:08:01.988Z,55.55
2022-11-06T10:10:45.924Z,54.58
2022-11-06T10:13:51.287Z,54.41
2022-11-06T10:16:53.839Z,53.55
2022-11-06T10:19:41.482Z,52.68
2022-11-06T10:22:08.214Z,52.26
2022-11-06T10:24:58.906Z,52.25
2022-11-06T10:27:41.081Z,52.05
2022-11-06T10:30:16.102Z,51.67
2022-11-06T10:33:01.015Z,51.14
2022-11-06T10:36:08.005Z,50.97
2022-11-06T10:38:38.235Z,50.87
2022-11-06T10:41:05.475Z,50.65
2022-11-06T10:43:37.797Z,50.47
2022-11-06T10:46:29.818Z,50.59
2022-11-06T10:49:05.198Z,50.72
2022-11-06T10:51:58.292Z,50.71
2022-11-06T10:54:49.583Z,50.78
2022-11-06T10:57:40.308Z,49.98
2022-11-06T11:00:13.248Z,50.49
2022-11-06T11:02:47.420Z,50.56
2022-11-06T11:05:20.242Z,50.70
2022-11-06T11:07:49.453Z,50.33
2022-11-06T11:10:29.027Z,50.58
2022-11-06T11:13:05.337Z,50.50
2022-11-06T11:15:48.122Z,50.77
2022-11-06T11:18:34.499Z,50.45
2022-11-06T11:21:28.709Z,49.78
2022-11-06T11:24:07.337Z,49.66
2022-11-06T11:27:01.580Z,50.04
2022-11-06T11:29:41.754Z,50.26
2022-11-06T11:32:09.179Z,49.53
2022-11-06T11:34:49.178Z,49.29
2022-11-06T11:37:34.047Z,50.09
2022-11-06T11:40:39.093Z,49.74
2022-11-06T11:43:24.973Z,50.05
2022-11-06T11:46:10.151Z,49.43
2022-11-06T11:48:52.135Z,49.11
2022-11-06T11:52:04.507Z,49.65
2022-11-06T11:54:34.640Z,49.30
2022-11-06T11:57:07.617Z,48.94
2022-11-06T11:59:44.312Z,49.41
2022-11-06T12:02:29.755Z,49.24
2022-11-06T12:05:06.336Z,49.21
2022-11-06T12:07:42.001Z,49.19
2022-11-06T12:10:28.126Z,48.69
2022-11-06T12:12:56.137Z,49.07
2022-11-06T12:15:39.324Z,48.73
2022-11-06T12:18:13.211Z,49.02
2022-11-06T12:20:45.477Z,49.23
2022-11-06T12:23:37.973Z,49.23
2022-11-06T12:26:18.337Z,48.90
2022-11-06T12:28:50.101Z,48.54
2022-11-06T12:31:37.729Z,48.41
2022-11-06T12:34:17.438Z,48.47
2022-11-06T12:37:08.404Z,47.96
2022-11-06T12:39:40.817Z,48.58
2022-11-06T12:42:12.703Z,48.56
2022-11-06T12:44:39.720Z,48.41
2022-11-06T12:47:39.143Z,48.73
2022-11-06T12:50:15.392Z,48.93
2022-11-06T12:53:06.412Z,48.78
2022-11-06T12:55:49.901Z,48.54
2022-11-06T12:58:34.688Z,49.01
2022-11-06T13:01:28.740Z,49.38
2022-11-06T13:04:12.290Z,49.37
2022-11-06T13:07:10.414Z,49.38
2022-11-06T13:09:45.390Z,49.53
2022-11-06T13:12:24.491Z,49.63
2022-11-06T13:15:21.719Z,49.41
2022-11-06T13:18:14.969Z,49.63
2022-11-06T13:21:08.226Z,49.96
2022-11-06T13:23:48.178Z,50.01
2022-11-06T13:26:47.395Z,50.01
2022-11-06T13:29:17.611Z,50.22
2022-11-06T13:32:07.257Z,50.21
2022-11-06T13:34:38.024Z,50.35
2022-11-06T13:37:21.536Z,50.26
2022-11-06T13:40:06.405Z,50.21
2022-11-06T13:42:43.039Z,50.53
2022-11-06T13:45:15.085Z,50.63
2022-11-06T13:48:09.637Z,50.70
2022-11-06T13:50:51.824Z,50.87
2022-11-06T13:53:43.193Z,51.08
2022-11-06T13:56:43.940Z,51.14
2022-11-06T13:59:33.735Z,50.93
2022-11-06T14:02:18.996Z,50.78
2022-11-06T14:05:41.031Z,50.87
2022-11-06T14:08:20.181Z,51.07
2022-11-06T14:11:01.029Z,51.12
2022-11-06T14:13:35.957Z,50.77
2022-11-06T14:16:14.926Z,51.16
2022-11-06T14:18:42.663Z,51.19
2022-11-06T14:21:37.759Z,51.10
2022-11-06T14:24:37.895Z,51.24
2022-11-06T14:27:24.620Z,51.42
2022-11-06T14:30:43.781Z,51.44
2022-11-06T14:33:43.082Z,51.33
2022-11-06T14:36:25.052Z,51.43
2022-11-06T14:38:55.154Z,51.65
2022-11-06T14:41:34.170Z,51.58
2022-11-06T14:44:24.835Z,51.66
2022-11-06T14:47:00.821Z,51.71
2022-11-06T14:49:40.727Z,51.78
2022-11-06T14:52:13.151Z,52.16
2022-11-06T14:54:55.442Z,52.39
2022-11-06T14:57:46.797Z,52.35
2022-11-06T15:00:43.301Z,52.77
2022-11-06T15:03:26.953Z,52.94
2022-11-06T15:06:18.268Z,53.14
2022-11-06T15:08:50.767Z,53.11
2022-11-06T15:11:32.836Z,53.16
2022-11-06T15:14:02.188Z,53.45
2022-11-06T15:16:43.415Z,53.38
2022-11-06T15:19:23.518Z,53.38
2022-11-06T15:22:17.312Z,53.34
2022-11-06T15:25:03.949Z,53.52
2022-11-06T15:27:53.058Z,53.72
2022-11-06T15:30:20.463Z,53.59
2022-11-06T15:32:49.366Z,53.61
2022-11-06T15:35:21.546Z,53.66
2022-11-06T15:37:57.363Z,53.72
2022-11-06T15:40:27.790Z,53.59
2022-11-06T15:42:57.019Z,53.81
2022-11-06T15:45:28.825Z,54.16
2022-11-06T15:48:15.899Z,53.98
2022-11-06T15:50:43.482Z,54.26
2022-11-06T15:53:13.581Z,54.18
2022-11-06T15:55:50.858Z,54.82
2022-11-06T15:58:17.604Z,54.42
2022-11-06T16:00:46.300Z,54.59
2022-11-06T16:03:17.602Z,54.51
2022-11-06T16:05:45.978Z,54.94
2022-11-06T16:08:15.556Z,54.68
2022-11-06T16:10:48.311Z,55.00
2022-11-06T16:13:20.845Z,54.82
2022-11-06T16:15:57.151Z,55.10
2022-11-06T16:18:35.495Z,55.15
2022-11-06T16:21:13.618Z,55.05
2022-11-06T16:23:53.413Z,55.14
2022-11-06T16:26:24.931Z,55.22
2022-11-06T16:28:54.827Z,55.32
2022-11-06T16:31:24.783Z,55.29
2022-11-06T16:33:57.000Z,55.43
2022-11-06T16:36:25.709Z,55.05
2022-11-06T16:38:53.988Z,55.45
2022-11-06T16:41:58.619Z,55.84
2022-11-06T16:44:31.592Z,55.80
2022-11-06T16:47:04.791Z,55.94
2022-11-06T16:49:37.684Z,56.12
2022-11-06T16:52:39.108Z,56.42
2022-11-06T16:55:16.837Z,56.48
2022-11-06T16:57:55.573Z,56.54
2022-11-06T17:00:31.801Z,56.40
2022-11-06T17:03:08.631Z,56.64
2022-11-06T17:05:37.831Z,56.74
2022-11-06T17:08:36.313Z,56.90
2022-11-06T17:11:21.796Z,56.74
2022-11-06T17:13:50.551Z,56.98
2022-11-06T17:16:24.552Z,56.77
2022-11-06T17:18:51.787Z,56.83
2022-11-06T17:21:22.369Z,56.86
2022-11-06T17:23:50.243Z,56.70
2022-11-06T17:26:29.027Z,57.03
2022-11-06T17:28:57.758Z,57.07
2022-11-06T17:31:25.878Z,57.14
2022-11-06T17:33:53.597Z,56.94
2022-11-06T17:36:22.378Z,57.13
2022-11-06T17:38:49.420Z,57.04
2022-11-06T17:41:32.321Z,57.11
2022-11-06T17:44:01.529Z,57.17
2022-11-06T17:46:33.159Z,57.39
2022-11-06T17:49:00.745Z,57.21
2022-11-06T17:51:46.147Z,57.11
2022-11-06T17:54:13.711Z,57.21
2022-11-06T17:56:40.861Z,57.43
2022-11-06T17:59:09.769Z,57.25
2022-11-06T18:01:36.881Z,57.09
2022-11-06T18:04:04.503Z,57.27
2022-11-06T18:06:31.888Z,57.39
2022-11-06T18:09:01.452Z,57.17
2022-11-06T18:11:30.631Z,57.34
2022-11-06T18:13:57.783Z,57.21
2022-11-06T18:16:28.712Z,57.21
2022-11-06T18:18:56.720Z,57.23
2022-11-06T18:21:24.969Z,57.39
2022-11-06T18:23:52.151Z,57.33
2022-11-06T18:26:22.769Z,57.34
2022-11-06T18:28:50.425Z,57.53
2022-11-06T18:31:18.814Z,57.01
2022-11-06T18:33:45.852Z,57.15
2022-11-06T18:36:14.249Z,57.18
2022-11-06T18:38:41.637Z,56.99
2022-11-06T18:41:14.998Z,57.36
2022-11-06T18:43:42.095Z,57.40
2022-11-06T18:46:12.655Z,57.12
2022-11-06T18:48:40.076Z,57.33
2022-11-06T18:51:12.383Z,57.04
2022-11-06T18:53:40.823Z,57.15
2022-11-06T18:56:17.296Z,57.36
2022-11-06T18:58:44.618Z,57.24
2022-11-06T19:01:18.774Z,57.54
2022-11-06T19:03:46.744Z,57.36
2022-11-06T19:06:17.152Z,56.96
2022-11-06T19:08:45.291Z,57.26
2022-11-06T19:11:15.775Z,57.33
2022-11-06T19:13:47.604Z,57.41
2022-11-06T19:16:16.032Z,57.39
2022-11-06T19:18:42.934Z,57.46
2022-11-06T19:21:11.674Z,57.31
2022-11-06T19:23:41.471Z,57.31
2022-11-06T19:29:00.663Z,57.30
2022-11-06T19:31:31.784Z,57.45
2022-11-06T19:33:59.747Z,57.53
2022-11-06T19:36:27.483Z,57.19
2022-11-06T19:38:54.751Z,57.17
2022-11-06T19:41:21.661Z,57.28
2022-11-06T19:43:48.577Z,57.21
2022-11-06T19:46:23.388Z,56.72
2022-11-06T19:48:52.767Z,57.20
2022-11-06T19:51:19.783Z,57.08
2022-11-06T19:53:46.686Z,57.26
2022-11-06T19:56:16.487Z,56.78
2022-11-06T19:58:43.734Z,57.16
2022-11-06T20:01:15.342Z,56.81
2022-11-06T20:03:42.735Z,56.91
2022-11-06T20:06:10.572Z,56.88
2022-11-06T20:08:38.903Z,56.57
2022-11-06T20:11:08.075Z,56.81
2022-11-06T20:13:39.050Z,56.92
2022-11-06T20:16:08.923Z,56.66
2022-11-06T20:18:36.378Z,57.12
2022-11-06T20:21:07.452Z,56.62
2022-11-06T20:23:35.295Z,57.02
2022-11-06T20:26:03.622Z,56.92
2022-11-06T20:28:30.629Z,56.82
2022-11-06T20:30:58.379Z,56.66
2022-11-06T20:33:25.406Z,57.07
2022-11-06T20:35:52.286Z,57.01
2022-11-06T20:38:19.810Z,56.76
2022-11-06T20:40:46.690Z,56.82
2022-11-06T20:43:13.893Z,57.00
2022-11-06T20:45:40.955Z,57.24
2022-11-06T20:48:09.423Z,57.00
2022-11-06T20:50:36.407Z,56.90
2022-11-06T20:53:03.318Z,57.32
2022-11-06T20:55:30.237Z,57.01
2022-11-06T20:57:57.125Z,56.99
2022-11-06T21:00:24.031Z,56.88
2022-11-06T21:02:51.990Z,57.20
2022-11-06T21:05:19.948Z,56.81
2022-11-06T21:07:46.853Z,57.05
2022-11-06T21:10:13.718Z,57.00
2022-11-06T21:12:40.589Z,56.83
2022-11-06T21:15:08.103Z,56.72
2022-11-06T21:17:35.314Z,56.79
2022-11-06T21:20:02.196Z,56.37
2022-11-06T21:22:29.175Z,56.69
2022-11-06T21:24:56.146Z,56.41
2022-11-06T21:27:23.024Z,56.62
2022-11-06T21:29:49.905Z,56.41
2022-11-06T21:32:16.770Z,56.56
2022-11-06T21:34:43.661Z,56.57
2022-11-06T21:37:10.555Z,56.33
2022-11-06T21:39:37.540Z,56.36
2022-11-06T21:42:05.406Z,56.46
2022-11-06T21:44:32.450Z,56.47
2022-11-06T21:46:59.319Z,56.72
2022-11-06T21:49:26.241Z,56.71
2022-11-06T21:51:54.134Z,56.38
2022-11-06T21:54:39.927Z,56.80
2022-11-06T21:57:06.799Z,56.61
2022-11-06T21:59:37.628Z,56.33
2022-11-06T22:02:09.531Z,56.52
2022-11-06T22:04:36.485Z,56.27
2022-11-06T22:07:03.343Z,56.58
2022-11-06T22:09:30.222Z,56.16
2022-11-06T22:11:59.210Z,56.33
2022-11-06T22:14:27.397Z,56.48
2022-11-06T22:16:54.266Z,56.51
2022-11-06T22:19:21.156Z,56.32
2022-11-06T22:21:48.034Z,56.41
2022-11-06T22:24:15.462Z,56.26
2022-11-06T22:26:42.392Z,56.31
2022-11-06T22:29:12.800Z,56.11
2022-11-06T22:31:40.008Z,56.07
2022-11-06T22:34:06.950Z,55.99
2022-11-06T22:36:33.879Z,56.12
2022-11-06T22:39:06.423Z,56.29
2022-11-06T22:41:33.541Z,56.23
2022-11-06T22:44:01.283Z,56.05
2022-11-06T22:46:29.131Z,56.08
2022-11-06T22:48:57.112Z,56.24
2022-11-06T22:51:27.807Z,56.08
2022-11-06T22:53:55.718Z,56.17
2022-11-06T22:56:24.864Z,56.19
2022-11-06T22:58:56.896Z,56.20
2022-11-06T23:01:26.677Z,56.31
2022-11-06T23:03:57.718Z,56.38
2022-11-06T23:06:25.994Z,56.13
2022-11-06T23:08:53.509Z,56.09
2022-11-06T23:11:22.643Z,55.96
2022-11-06T23:13:49.545Z,56.21
2022-11-06T23:16:42.904Z,55.84
2022-11-06T23:19:12.808Z,56.07
2022-11-06T23:21:40.304Z,56.13
2022-11-06T23:24:07.859Z,55.80
2022-11-06T23:26:35.040Z,55.96
2022-11-06T23:29:02.126Z,56.35
2022-11-06T23:31:29.328Z,56.30
2022-11-06T23:33:56.539Z,56.26
2022-11-06T23:36:23.431Z,56.08
2022-11-06T23:38:53.594Z,56.20
2022-11-06T23:41:39.169Z,56.19
2022-11-06T23:44:26.125Z,56.16
2022-11-06T23:46:53.166Z,56.03
2022-11-06T23:49:20.029Z,56.13
2022-11-06T23:51:47.005Z,56.22
2022-11-06T23:54:14.091Z,56.17
2022-11-06T23:56:40.957Z,56.05
2022-11-06T23:59:07.823Z,56.30
